UKLN

Details ICAO UKLN (CWC)
Name CHERNIVTSI INTL
Region Ukraine
Timezone Europe/Kiev (UTC+3.0)
Plans Departing 15
Arriving 14
Stats Elevation 826 ft / 252 m (AMSL)
Location 48.259323° 25.980830°
Runways 1
Magnetic Variation 6.276° E
Sunrise 2018-05-27 02:25:11 UTC / 2018-05-27 05:25:11 Local
Sunset 2018-05-27 18:04:09 UTC / 2018-05-27 21:04:09 Local
Advertisement - Login to hide

Runways

ID Width Length Bearing (true) Bearing (mag) Surface Threshold Offset Overrun Length
15 138 ft / 42 m 7,286 ft / 2,221 m 152.99° 146.71° Asphalt 0 ft / 0 m 165 ft / 50 m
33 138 ft / 42 m 7,286 ft / 2,221 m 333.00° 326.72° Asphalt 0 ft / 0 m 145 ft / 44 m

Approach Navaids

Runway Type Ident Frequency Range Bearing (true) Bearing (mag) Slope Elevation
15 Localiser ICN 109.50 MHz 18 nm / 33 km 153.36° 147.09° - 826 ft / 252 m (AMSL)
15 Glidescope ICN 109.50 MHz 10 nm / 19 km 153.00° 146.72° 3.00° 826 ft / 252 m (AMSL)
33 Localiser ICR 110.30 MHz 18 nm / 33 km 332.68° 326.40° - 826 ft / 252 m (AMSL)
33 Glidescope ICR 110.30 MHz 10 nm / 19 km 333.00° 326.72° 3.00° 826 ft / 252 m (AMSL)

Map

Weather


0- 5 10 15 20 25 30 35+ Temperature / ° C

Clouds and Precipitation
Forecast for 2018-05-26 18:00 UTC. Updated 5 hours ago

Ground ~20,000 ft ~40,000 ft Winds

METAR

UKLN 262200Z 13003MPS 090V180 CAVOK 17/10 Q1024 R15/09//70 NOSIG

TAF

Not found

Frequencies

Tower 121.30 MHz TWR
Warning: Do not use this data for real-world aviation or navigation. No guarantee of current accuracy is given.